Terminal Aerodrome Forecast
Issued by NWS

Home | Current Version | Previous Version | Text Only | Print | Product List | Glossary On
Versions: 1 2 3 4 5 6 7 8 9 10 11 12 13 14 15 16 17 18 19 20 21 22 23 24 25 26
000
FTUS45 KBOU 300137 AAA
TAFAPA
TAF AMD
KAPA 300137Z 3002/3024 02012KT P6SM SCT080 BKN120
     FM300300 17010KT P6SM FEW080 SCT140 BKN220
     FM301000 19008KT P6SM FEW140
     FM301600 VRB05KT P6SM FEW080 SCT140
     FM302000 05008KT P6SM SCT080 BKN110 PROB30 3020/3024 VRB20G35KT
      -TSRA BKN080CB=

USA.gov is the U.S. government's official web portal to all federal, state and local government web resources and services.